Unser Platzwetter:
(um das Bild zu aktualisieren oder bei unvollständig geladenem Bild den Reload-Button des Browsers drücken)

[Quelle: ADDS]
METAR
ETNN 062120Z 28006KT 9999 SCT060 14/08 Q1021 BLU+ =
AMD ETNN 061405Z 0614/0623 29015G25KT 9999 NSW SCT040 SCT080 TEMPO 0614/0617 30020G33KT 4000 SHRA SCT012 BKN020CB BECMG 0619/0621 28007KT 9999 NSW FEW030 BY ETGL
TAF
AMD ETNN 061405Z 0614/0623 29015G25KT 9999 NSW SCT040 SCT080 TEMPO 0614/0617 30020G33KT 4000 SHRA SCT012 BKN020CB BECMG 0619/0621 28007KT 9999 NSW FEW030 BY ETGL =
SR / SS: 03:29 / 19:47 UTC (Vettweiss-Soller 2020-07-06)

Aktuelle Windrichtung in Relation zu unserer Bahn:

 

Aktuelle Dichtehöhe bei uns am Platz: 329 ft.

PPR beachten

50 44 51 N / 06 34 01 E
525 ft
14/32 Gras 360 m
136.090 MHz
02424/901444

Kontakt:

LSG Gertrundenhof e.V.
c/o Rolf Viehs
Scheffensweg 33
52393 Hürtgenwald-Gey
02429/908222
0178/8845333

in Lokalzeit:
05:27
21:49